createdAt,value
2018-06-14T02:14:49.580Z,99.90
2018-06-14T03:16:17.444Z,99.90
2018-06-14T03:18:45.879Z,99.90
2018-06-14T03:21:18.321Z,99.90
2018-06-14T03:24:25.505Z,99.90
2018-06-14T04:03:36.737Z,99.90
2018-06-14T04:06:12.322Z,99.90
2018-06-14T04:11:12.607Z,99.90
2018-06-14T04:16:16.730Z,99.90
2018-06-14T04:18:46.571Z,99.90
2018-06-14T04:22:11.387Z,99.90
2018-06-14T04:24:42.215Z,99.90
2018-06-14T04:27:10.552Z,99.90
2018-06-14T04:29:39.798Z,99.90
2018-06-14T04:32:08.209Z,99.90
2018-06-14T04:37:11.747Z,99.90
2018-06-14T04:39:42.849Z,99.90
2018-06-14T04:42:26.971Z,99.90
2018-06-14T04:45:10.776Z,99.90
2018-06-14T04:47:47.218Z,99.90
2018-06-14T04:50:15.603Z,99.90
2018-06-14T04:52:50.906Z,99.90
2018-06-14T04:55:27.435Z,99.90
2018-06-14T05:00:25.600Z,99.90
2018-06-14T05:05:46.684Z,99.90
2018-06-14T05:10:49.569Z,99.90
2018-06-14T05:22:17.803Z,99.90
2018-06-14T05:24:47.555Z,99.90
2018-06-14T05:32:11.947Z,99.90
2018-06-14T05:34:40.155Z,99.90
2018-06-14T05:37:09.401Z,99.90
2018-06-14T05:39:37.868Z,99.90
2018-06-14T05:42:06.207Z,99.90
2018-06-14T05:44:34.486Z,99.90
2018-06-14T05:47:02.760Z,99.90
2018-06-14T05:49:31.848Z,99.90
2018-06-14T05:52:00.729Z,99.90
2018-06-14T05:54:29.167Z,99.90
2018-06-14T06:01:53.652Z,99.90
2018-06-14T06:06:50.466Z,99.90
2018-06-14T06:09:18.863Z,99.90
2018-06-14T06:11:47.265Z,99.90
2018-06-14T06:14:15.639Z,99.90
2018-06-14T06:16:44.267Z,99.90
2018-06-14T06:19:12.550Z,99.90
2018-06-14T06:21:40.859Z,99.90
2018-06-14T06:24:09.104Z,99.90
2018-06-14T06:26:37.440Z,99.90
2018-06-14T06:31:33.617Z,99.90
2018-06-14T06:34:01.924Z,99.90
2018-06-14T06:38:58.313Z,99.90
2018-06-14T06:41:26.900Z,99.90
2018-06-14T06:43:55.644Z,99.80
2018-06-14T06:46:24.797Z,99.70
2018-06-14T06:48:52.850Z,99.70
2018-06-14T06:51:21.128Z,99.30
2018-06-14T06:56:17.619Z,98.80
2018-06-14T06:58:45.927Z,98.50
2018-06-14T07:01:14.246Z,98.30
2018-06-14T07:03:42.483Z,98.00
2018-06-14T07:06:10.911Z,97.90
2018-06-14T07:08:39.103Z,97.80
2018-06-14T07:11:07.420Z,97.70
2018-06-14T07:16:03.923Z,97.40
2018-06-14T07:18:32.995Z,97.10
2018-06-14T07:21:01.304Z,96.60
2018-06-14T07:25:57.825Z,96.20
2018-06-14T07:28:26.320Z,96.30
2018-06-14T07:30:55.238Z,96.40
2018-06-14T07:33:23.630Z,96.40
2018-06-14T07:35:52.107Z,96.30
2018-06-14T07:38:20.408Z,96.30
2018-06-14T07:40:48.815Z,96.70
2018-06-14T07:45:44.875Z,96.50
2018-06-14T07:48:13.189Z,96.60
2018-06-14T07:53:10.520Z,96.70
2018-06-14T07:55:38.820Z,96.80
2018-06-14T07:58:07.200Z,96.90
2018-06-14T08:00:35.607Z,96.90
2018-06-14T08:03:04.017Z,96.90
2018-06-14T08:05:32.311Z,97.00
2018-06-14T08:08:00.621Z,96.90
2018-06-14T08:10:28.993Z,96.90
2018-06-14T08:12:57.199Z,96.70
2018-06-14T08:17:53.611Z,96.50
2018-06-14T08:20:21.870Z,96.40
2018-06-14T08:22:50.240Z,96.40
2018-06-14T08:25:18.256Z,96.30
2018-06-14T08:27:46.583Z,96.20
2018-06-14T08:30:14.976Z,96.10
2018-06-14T08:32:43.170Z,95.90
2018-06-14T08:37:39.671Z,95.40
2018-06-14T08:40:07.998Z,95.00
2018-06-14T08:42:36.372Z,94.70
2018-06-14T08:45:04.792Z,94.50
2018-06-14T08:47:32.925Z,94.10
2018-06-14T08:50:01.848Z,93.90
2018-06-14T08:57:27.198Z,92.90
2018-06-14T08:59:55.876Z,92.60
2018-06-14T09:02:24.049Z,92.10
2018-06-14T09:07:20.449Z,91.90
2018-06-14T09:12:17.033Z,91.60
2018-06-14T09:17:13.548Z,91.40
2018-06-14T09:19:41.822Z,91.50
2018-06-14T09:24:38.218Z,90.80
2018-06-14T09:29:34.611Z,90.10
2018-06-14T09:34:31.891Z,89.20
2018-06-14T09:37:00.215Z,88.80
2018-06-14T09:39:29.320Z,88.20
2018-06-14T09:41:57.434Z,87.10
2018-06-14T09:44:25.810Z,86.70
2018-06-14T09:46:54.242Z,86.10
2018-06-14T09:49:22.426Z,85.50
2018-06-14T09:54:18.933Z,85.50
2018-06-14T09:56:47.310Z,85.00
2018-06-14T10:11:36.895Z,84.40
2018-06-14T10:19:01.387Z,83.10
2018-06-14T10:21:29.688Z,83.00
2018-06-14T10:23:57.768Z,82.50
2018-06-14T10:28:54.576Z,81.60
2018-06-14T10:31:23.011Z,81.20
2018-06-14T10:33:51.348Z,81.00
2018-06-14T10:36:19.983Z,80.70
2018-06-14T10:38:49.865Z,80.70
2018-06-14T10:41:18.128Z,80.20
2018-06-14T10:43:46.505Z,78.90
2018-06-14T10:46:14.872Z,78.10
2018-06-14T10:48:43.280Z,76.90
2018-06-14T10:51:11.380Z,76.40
2018-06-14T10:53:39.782Z,75.70
2018-06-14T10:56:08.164Z,74.90
2018-06-14T10:58:37.291Z,73.00
2018-06-14T11:01:05.641Z,72.70
2018-06-14T11:03:33.899Z,72.40
2018-06-14T11:08:30.505Z,72.00
2018-06-14T11:10:58.804Z,71.30
2018-06-14T11:13:27.117Z,71.20
2018-06-14T11:15:56.500Z,70.80
2018-06-14T11:18:24.792Z,70.60
2018-06-14T11:20:53.722Z,70.50
2018-06-14T11:25:50.518Z,70.10
2018-06-14T11:30:47.053Z,70.00
2018-06-14T11:33:15.587Z,69.80
2018-06-14T11:35:44.127Z,69.40
2018-06-14T11:38:12.634Z,68.40
2018-06-14T11:40:40.906Z,68.20
2018-06-14T11:45:37.186Z,66.00
2018-06-14T11:48:05.372Z,65.50
2018-06-14T11:50:33.696Z,64.00
2018-06-14T11:55:30.609Z,64.40
2018-06-14T11:57:58.903Z,63.20
2018-06-14T12:00:27.296Z,63.50
2018-06-14T12:05:24.186Z,63.10
2018-06-14T12:07:52.384Z,63.00
2018-06-14T12:12:48.432Z,62.00
2018-06-14T12:15:16.995Z,61.70
2018-06-14T12:17:45.267Z,61.00
2018-06-14T12:22:41.777Z,59.50
2018-06-14T12:25:10.275Z,59.80
2018-06-14T12:27:38.560Z,60.30
2018-06-14T12:32:35.130Z,60.70
2018-06-14T12:35:03.756Z,58.80
2018-06-14T12:40:00.700Z,59.60
2018-06-14T12:42:29.199Z,59.80
2018-06-14T12:44:57.493Z,59.90
2018-06-14T12:47:26.477Z,59.10
2018-06-14T12:52:22.938Z,58.60
2018-06-14T12:54:51.160Z,58.30
2018-06-14T12:59:48.467Z,59.00
2018-06-14T13:02:16.885Z,58.10
2018-06-14T13:04:45.151Z,58.10
2018-06-14T13:07:13.607Z,58.40
2018-06-14T13:09:41.971Z,57.20
2018-06-14T13:14:38.963Z,57.70
2018-06-14T13:17:07.492Z,58.20
2018-06-14T13:19:35.770Z,57.60
2018-06-14T13:24:42.535Z,57.20
2018-06-14T13:27:12.189Z,56.90
2018-06-14T13:29:40.835Z,56.70
2018-06-14T13:32:09.329Z,56.20
2018-06-14T13:37:07.037Z,55.90
2018-06-14T13:42:03.672Z,56.50
2018-06-14T13:44:32.131Z,56.50
2018-06-14T13:47:00.480Z,56.30
2018-06-14T13:49:28.829Z,56.50
2018-06-14T13:51:57.149Z,57.00
2018-06-14T13:54:25.643Z,56.90
2018-06-14T13:59:22.044Z,57.00
2018-06-14T14:01:50.230Z,56.70
2018-06-14T14:04:19.938Z,56.70
2018-06-14T14:06:53.028Z,56.60
2018-06-14T14:09:21.885Z,56.40
2018-06-14T14:11:50.189Z,56.40
2018-06-14T14:14:18.585Z,56.70
2018-06-14T14:16:46.946Z,56.70
2018-06-14T14:19:15.775Z,56.50
2018-06-14T14:24:12.250Z,56.70
2018-06-14T14:26:40.781Z,57.10
2018-06-14T14:29:09.068Z,57.20
2018-06-14T14:31:37.249Z,57.00
2018-06-14T14:34:05.887Z,57.20
2018-06-14T14:36:34.264Z,57.10
2018-06-14T14:41:30.598Z,56.80
2018-06-14T14:43:59.444Z,56.50
2018-06-14T14:46:27.548Z,56.50
2018-06-14T14:51:24.142Z,56.60
2018-06-14T14:58:48.648Z,56.60
2018-06-14T15:01:17.607Z,56.60
2018-06-14T15:03:45.868Z,56.40
2018-06-14T15:06:14.224Z,55.60
2018-06-14T15:08:42.648Z,56.00
2018-06-14T15:11:10.964Z,56.20
2018-06-14T15:13:39.431Z,56.30
2018-06-14T15:16:08.654Z,56.30
2018-06-14T15:21:05.564Z,56.40
2018-06-14T15:23:33.645Z,56.80
2018-06-14T15:28:30.060Z,56.60
2018-06-14T15:30:58.432Z,56.10
2018-06-14T15:35:54.805Z,56.10
2018-06-14T15:38:27.023Z,56.30
2018-06-14T15:40:55.306Z,56.20
2018-06-14T15:45:51.807Z,56.30
2018-06-14T15:48:20.109Z,56.20
2018-06-14T15:50:48.492Z,56.20
2018-06-14T15:56:02.157Z,57.20
2018-06-14T15:58:31.315Z,56.80
2018-06-14T16:00:59.600Z,57.10
2018-06-14T16:03:27.669Z,57.00
2018-06-14T16:05:56.192Z,56.90
2018-06-14T16:08:24.384Z,57.00
2018-06-14T16:10:53.267Z,57.10
2018-06-14T16:13:21.922Z,57.00
2018-06-14T16:15:50.302Z,57.10
2018-06-14T16:18:19.243Z,57.20
2018-06-14T16:20:47.809Z,57.30
2018-06-14T16:25:44.499Z,57.30
2018-06-14T16:30:41.420Z,57.50
2018-06-14T16:33:09.905Z,57.70
2018-06-14T16:40:35.419Z,58.10
2018-06-14T16:45:31.896Z,58.10
2018-06-14T16:48:01.582Z,58.20
2018-06-14T16:50:29.913Z,58.20
2018-06-14T16:52:59.038Z,58.20
2018-06-14T16:55:27.249Z,58.40
2018-06-14T17:00:23.725Z,58.40
2018-06-14T17:02:52.514Z,58.40
2018-06-14T17:05:20.894Z,58.60
2018-06-14T17:07:49.236Z,59.00
2018-06-14T17:12:45.433Z,59.60
2018-06-14T17:17:45.987Z,59.90
2018-06-14T17:20:14.403Z,59.90
2018-06-14T17:22:42.696Z,59.80
2018-06-14T17:30:07.503Z,59.80
2018-06-14T17:32:35.788Z,59.90
2018-06-14T17:37:32.498Z,60.40
2018-06-14T17:40:00.885Z,60.80
2018-06-14T17:44:57.492Z,61.20
2018-06-14T17:47:25.697Z,61.60
2018-06-14T17:49:54.107Z,61.80
2018-06-14T17:52:22.386Z,61.90
2018-06-14T17:54:50.707Z,62.10
2018-06-14T17:57:18.968Z,62.40
2018-06-14T18:02:15.860Z,62.90
2018-06-14T18:09:40.949Z,63.70
2018-06-14T18:12:09.224Z,64.10
2018-06-14T18:14:37.463Z,64.50
2018-06-14T18:17:05.974Z,64.80
2018-06-14T18:19:34.440Z,65.20
2018-06-14T18:22:02.648Z,65.60
2018-06-14T18:24:30.967Z,66.10
2018-06-14T18:27:02.519Z,66.60
2018-06-14T18:29:30.895Z,67.10
2018-06-14T18:31:59.443Z,67.70
2018-06-14T18:34:27.605Z,67.90
2018-06-14T18:39:24.206Z,69.00
2018-06-14T18:44:20.742Z,70.30
2018-06-14T18:46:49.229Z,71.00
2018-06-14T18:49:17.602Z,71.50
2018-06-14T18:54:14.105Z,72.80
2018-06-14T18:56:42.415Z,73.30
2018-06-14T18:59:10.814Z,73.80
2018-06-14T19:01:39.188Z,74.20
2018-06-14T19:04:07.698Z,74.80
2018-06-14T19:09:06.271Z,76.00
2018-06-14T19:11:34.627Z,76.60
2018-06-14T19:14:03.151Z,77.00
2018-06-14T19:16:31.413Z,77.60
2018-06-14T19:18:59.698Z,78.40
2018-06-14T19:21:28.333Z,79.10
2018-06-14T19:23:56.628Z,79.70
2018-06-14T19:26:25.048Z,80.50
2018-06-14T19:28:53.132Z,81.00
2018-06-14T19:36:17.642Z,82.80
2018-06-14T19:38:46.928Z,83.30
2018-06-14T19:48:40.845Z,85.30
2018-06-14T19:51:09.379Z,85.70
2018-06-14T19:53:37.747Z,86.20
2018-06-14T19:56:06.332Z,86.60
2018-06-14T19:58:34.878Z,87.00
2018-06-14T20:01:03.474Z,87.30
2018-06-14T20:03:31.749Z,87.70
2018-06-14T20:08:29.688Z,88.20
2018-06-14T20:10:58.070Z,88.50
2018-06-14T20:15:54.571Z,89.20
2018-06-14T20:18:23.073Z,89.30
2018-06-14T20:20:51.497Z,89.60
2018-06-14T20:23:19.769Z,89.80
2018-06-14T20:25:48.185Z,90.10
2018-06-14T20:28:16.440Z,90.30
2018-06-14T20:30:44.968Z,90.50
2018-06-14T20:33:13.299Z,90.70
2018-06-14T20:35:41.705Z,90.80
2018-06-14T20:38:10.051Z,90.90
2018-06-14T20:40:39.181Z,91.10
2018-06-14T20:43:07.579Z,91.20
2018-06-14T20:45:35.977Z,91.30
2018-06-14T20:48:04.175Z,91.40
2018-06-14T20:50:32.550Z,91.50
2018-06-14T20:53:00.973Z,91.80
2018-06-14T20:55:29.291Z,92.00
2018-06-14T20:57:57.647Z,92.10
2018-06-14T21:00:26.275Z,92.20
2018-06-14T21:02:55.018Z,92.70
2018-06-14T21:05:23.266Z,92.40
2018-06-14T21:10:20.156Z,92.60
2018-06-14T21:12:48.492Z,92.70
2018-06-14T21:15:16.956Z,92.50
2018-06-14T21:17:44.926Z,92.90
2018-06-14T21:20:13.673Z,93.10
2018-06-14T21:22:41.972Z,93.20
2018-06-14T21:25:10.471Z,93.20
2018-06-14T21:27:38.776Z,93.30
2018-06-14T21:30:06.969Z,93.40
2018-06-14T21:32:35.257Z,93.50
2018-06-14T21:40:03.369Z,93.80
2018-06-14T21:42:31.725Z,93.90
2018-06-14T21:45:00.014Z,94.00
2018-06-14T21:47:28.424Z,94.00
2018-06-14T21:49:57.116Z,94.10
2018-06-14T21:54:53.394Z,94.30
2018-06-14T21:57:21.697Z,94.70
2018-06-14T21:59:50.112Z,94.50
2018-06-14T22:02:18.723Z,94.50
2018-06-14T22:04:46.981Z,94.60
2018-06-14T22:07:15.398Z,94.70
2018-06-14T22:17:09.913Z,95.00
2018-06-14T22:19:38.211Z,95.00
2018-06-14T22:22:06.714Z,95.20
2018-06-14T22:24:35.197Z,95.20
2018-06-14T22:27:03.202Z,95.20
2018-06-14T22:29:31.424Z,95.30
2018-06-14T22:31:59.802Z,95.40
2018-06-14T22:34:38.941Z,95.50
2018-06-14T22:39:35.914Z,95.80
2018-06-14T22:42:04.359Z,95.60
2018-06-14T22:44:32.657Z,95.70
2018-06-14T22:47:00.851Z,95.80
2018-06-14T22:53:20.164Z,96.00
2018-06-14T22:55:48.368Z,96.10
2018-06-14T23:00:49.858Z,96.10
2018-06-14T23:03:18.283Z,96.10
2018-06-14T23:05:46.684Z,96.20
2018-06-14T23:08:15.095Z,96.30
2018-06-14T23:10:54.737Z,96.30
2018-06-14T23:13:23.032Z,96.40
2018-06-14T23:15:51.304Z,96.40
2018-06-14T23:18:19.597Z,96.50
2018-06-14T23:20:48.017Z,96.60
2018-06-14T23:28:13.107Z,96.70
2018-06-14T23:33:10.103Z,96.80
2018-06-14T23:35:38.528Z,96.80
2018-06-14T23:38:06.717Z,96.90
2018-06-14T23:40:35.101Z,97.00
2018-06-14T23:43:04.134Z,97.10
2018-06-14T23:45:32.415Z,97.10
2018-06-14T23:48:00.804Z,97.10
2018-06-14T23:50:29.810Z,97.20
2018-06-14T23:52:58.138Z,97.20
2018-06-14T23:55:26.559Z,97.30
2018-06-14T23:57:54.715Z,97.30
